Time;durP1;ratioP1;P1;durP2;ratioP2;P2;SDS_P1;SDS_P2;PMS_P1;PMS_P2;Temp;Humidity;BMP_temperature;BMP_pressure;BME280_temperature;BME280_humidity;BME280_pressure;Samples;Min_cycle;Max_cycle;Signal;HPM_P1;HPM_P2
2022/11/12 00:01:18;;;;;;;6.53;4.10;;;17.00;68.70;18.10;102328.00;;;;5008551;28;20206;-49
2022/11/12 00:03:44;;;;;;;5.47;4.00;;;17.00;68.80;18.00;102320.00;;;;4991723;28;20864;-49
2022/11/12 00:06:09;;;;;;;4.73;4.00;;;17.00;68.70;18.00;102320.00;;;;5009614;28;20159;-50
2022/11/12 00:08:35;;;;;;;7.13;3.87;;;17.00;68.80;18.00;102326.00;;;;5009442;28;20884;-49
2022/11/12 00:11:01;;;;;;;4.40;3.90;;;16.90;68.80;18.00;102319.00;;;;5009347;28;20261;-49
2022/11/12 00:13:27;;;;;;;6.03;4.20;;;17.00;68.80;18.00;102326.00;;;;5009306;28;20278;-48
2022/11/12 00:15:53;;;;;;;5.33;4.10;;;16.90;68.80;18.00;102322.00;;;;5009167;28;20254;-49
2022/11/12 00:18:19;;;;;;;6.27;4.00;;;16.90;68.80;17.90;102320.00;;;;5009433;28;20197;-49
2022/11/12 00:20:44;;;;;;;4.40;4.00;;;16.90;68.80;17.90;102324.00;;;;5009393;28;20683;-48
2022/11/12 00:23:10;;;;;;;6.20;4.00;;;16.90;68.80;17.90;102330.00;;;;5009065;28;20189;-49
2022/11/12 00:25:36;;;;;;;5.93;4.20;;;16.90;68.80;17.90;102331.00;;;;5009249;28;20170;-47
2022/11/12 00:28:07;;;;;;;4.60;4.00;;;16.90;68.80;17.90;102324.00;;;;5009134;28;20170;-50
2022/11/12 00:30:35;;;;;;;6.07;4.07;;;16.90;68.80;17.90;102332.00;;;;4991619;28;20238;-49
2022/11/12 00:33:02;;;;;;;6.17;3.80;;;16.90;68.80;17.90;102326.00;;;;4990798;28;20178;-48
2022/11/12 00:35:30;;;;;;;4.57;3.90;;;16.80;68.60;17.90;102323.00;;;;5008494;28;20257;-49
2022/11/12 00:37:56;;;;;;;4.60;3.97;;;16.90;68.80;18.00;102327.00;;;;5008513;28;20179;-49
2022/11/12 00:40:22;;;;;;;5.03;3.60;;;16.80;68.60;18.00;102332.00;;;;5008189;28;20594;-48
2022/11/12 00:42:51;;;;;;;4.10;3.70;;;16.80;68.60;17.90;102335.00;;;;5007985;28;20178;-49
2022/11/12 00:45:17;;;;;;;5.20;3.87;;;16.80;68.60;17.90;102332.00;;;;5008525;28;20206;-50
2022/11/12 00:47:43;;;;;;;4.87;3.80;;;16.80;68.60;17.90;102335.00;;;;5008224;28;20377;-49
2022/11/12 00:50:09;;;;;;;4.03;3.63;;;16.80;68.60;18.00;102346.00;;;;5007730;28;20175;-48
2022/11/12 00:52:34;;;;;;;6.57;3.93;;;16.80;68.80;17.90;102342.00;;;;5007671;28;20194;-48
2022/11/12 00:55:00;;;;;;;4.20;3.80;;;16.80;68.80;17.90;102344.00;;;;5007841;28;20221;-50
2022/11/12 00:57:26;;;;;;;4.13;3.73;;;16.80;68.80;17.90;102336.00;;;;5007814;28;20178;-50
2022/11/12 00:59:51;;;;;;;3.80;3.50;;;16.80;68.80;17.90;102334.00;;;;5007870;28;20266;-49
2022/11/12 01:02:19;;;;;;;4.40;4.00;;;16.70;68.70;17.90;102336.00;;;;5007855;28;20226;-49
2022/11/12 01:04:44;;;;;;;4.90;4.03;;;16.70;68.70;17.90;102343.00;;;;5008031;28;20716;-50
2022/11/12 01:07:10;;;;;;;4.30;3.90;;;16.70;68.80;17.90;102342.00;;;;5008029;28;20163;-48
2022/11/12 01:09:36;;;;;;;4.80;3.97;;;16.70;68.80;17.80;102349.00;;;;5007845;28;20197;-50
2022/11/12 01:12:02;;;;;;;4.33;3.90;;;16.70;68.90;17.80;102333.00;;;;4991596;28;20175;-48
2022/11/12 01:14:27;;;;;;;3.90;3.50;;;16.70;68.90;17.80;102344.00;;;;5011547;28;20248;-49
2022/11/12 01:16:53;;;;;;;4.00;3.60;;;16.70;68.90;17.80;102352.00;;;;4993924;28;20664;-48
2022/11/12 01:19:19;;;;;;;3.80;3.50;;;16.70;68.90;17.80;102354.00;;;;5014005;28;20282;-49
2022/11/12 01:21:44;;;;;;;3.97;3.67;;;16.60;68.80;17.80;102334.00;;;;5012514;28;20167;-48
2022/11/12 01:24:11;;;;;;;4.47;3.90;;;16.60;68.80;17.80;102336.00;;;;5011710;28;20199;-47
2022/11/12 01:26:37;;;;;;;4.47;3.37;;;16.60;68.80;17.80;102346.00;;;;5011941;28;20220;-50
2022/11/12 01:29:03;;;;;;;4.03;3.63;;;16.60;68.80;17.80;102340.00;;;;5011632;28;20172;-49
2022/11/12 01:31:34;;;;;;;4.07;3.63;;;16.60;68.80;17.80;102339.00;;;;5011676;28;20177;-49
2022/11/12 01:34:03;;;;;;;3.90;3.50;;;16.60;68.80;17.80;102344.00;;;;5011645;28;20206;-48
2022/11/12 01:36:37;;;;;;;4.20;3.80;;;16.60;68.90;17.70;102339.00;;;;5011324;28;20187;-48
2022/11/12 01:39:06;;;;;;;4.00;3.60;;;16.50;68.80;17.70;102332.00;;;;5011124;28;20509;-48
2022/11/12 01:41:34;;;;;;;3.83;3.50;;;16.50;68.90;17.70;102336.00;;;;5010707;28;20205;-48
2022/11/12 01:44:12;;;;;;;3.90;3.60;;;16.50;68.80;17.70;102338.00;;;;5011109;28;20292;-48
2022/11/12 01:47:18;;;;;;;4.30;3.60;;;16.50;69.00;17.70;102345.00;;;;5011514;28;20167;-48
2022/11/12 01:49:57;;;;;;;4.47;3.60;;;16.50;68.90;17.40;102342.00;;;;4996867;28;20197;-48
2022/11/12 01:52:42;;;;;;;4.03;3.70;;;16.50;69.00;17.70;102322.00;;;;4995227;28;20224;-48
2022/11/12 01:55:14;;;;;;;3.70;3.40;;;16.50;68.90;17.70;102332.00;;;;4978454;28;20693;-49
2022/11/12 01:58:04;;;;;;;3.80;3.50;;;16.50;69.00;17.40;102332.00;;;;4993917;28;20176;-49
2022/11/12 02:00:30;;;;;;;3.93;3.53;;;16.50;69.00;17.60;102329.00;;;;4999265;28;20710;-48
2022/11/12 02:02:58;;;;;;;3.87;3.50;;;16.50;69.00;17.60;102334.00;;;;5010254;28;20167;-47
2022/11/12 02:05:24;;;;;;;3.50;3.20;;;16.40;69.00;17.60;102318.00;;;;4993494;28;20188;-50
2022/11/12 02:07:50;;;;;;;4.00;3.60;;;16.40;68.80;17.60;102321.00;;;;5010724;28;20174;-49
2022/11/12 02:10:16;;;;;;;3.80;3.30;;;16.40;68.90;17.60;102326.00;;;;4993241;28;20173;-50
2022/11/12 02:15:26;;;;;;;4.03;3.40;;;16.40;68.80;17.60;102308.00;;;;4996039;28;20212;-50
2022/11/12 02:17:52;;;;;;;3.87;3.57;;;16.40;69.00;17.60;102329.00;;;;4977035;28;20604;-49
2022/11/12 02:20:18;;;;;;;3.67;3.30;;;16.40;69.00;17.60;102324.00;;;;4992902;28;20200;-49
2022/11/12 02:22:44;;;;;;;3.40;3.10;;;16.40;69.00;17.60;102322.00;;;;5009777;28;20260;-49
2022/11/12 02:25:17;;;;;;;3.50;3.17;;;16.40;69.10;17.60;102319.00;;;;4992482;28;20274;-49
2022/11/12 02:27:43;;;;;;;3.30;3.00;;;16.30;68.90;17.50;102318.00;;;;4993018;28;20162;-48
2022/11/12 02:30:10;;;;;;;3.83;3.43;;;16.40;69.00;17.50;102329.00;;;;4976559;28;20173;-49
2022/11/12 02:32:35;;;;;;;3.60;3.30;;;16.40;69.00;17.50;102325.00;;;;5010110;28;20790;-49
2022/11/12 02:35:01;;;;;;;3.40;3.10;;;16.30;68.90;17.50;102330.00;;;;5010270;28;20291;-52
2022/11/12 02:37:27;;;;;;;3.40;3.10;;;16.40;69.00;17.50;102320.00;;;;5010206;28;20333;-49
2022/11/12 02:39:53;;;;;;;3.20;2.90;;;16.30;68.90;17.50;102325.00;;;;4992287;28;20234;-49
2022/11/12 02:42:18;;;;;;;3.57;3.20;;;16.30;69.00;17.50;102338.00;;;;5009660;28;20237;-50
2022/11/12 02:44:44;;;;;;;3.07;2.80;;;16.30;69.00;17.50;102328.00;;;;5010049;28;20884;-48
2022/11/12 02:47:10;;;;;;;3.30;3.00;;;16.30;69.00;17.50;102330.00;;;;5009908;28;20171;-47
2022/11/12 02:49:35;;;;;;;3.50;3.20;;;16.30;69.00;17.50;102332.00;;;;5009794;28;20182;-49
2022/11/12 02:52:01;;;;;;;3.83;3.47;;;16.30;68.90;17.50;102316.00;;;;5009511;28;20179;-48
2022/11/12 02:54:27;;;;;;;3.47;3.17;;;16.20;68.90;17.40;102319.00;;;;5009633;28;20683;-48
2022/11/12 02:56:52;;;;;;;3.03;2.83;;;16.20;68.80;17.40;102332.00;;;;5009800;28;20177;-48
2022/11/12 02:59:18;;;;;;;3.50;3.20;;;16.20;68.80;17.40;102331.00;;;;5009862;28;20201;-48
2022/11/12 03:01:44;;;;;;;3.33;3.07;;;16.20;68.90;17.50;102322.00;;;;5009335;28;20202;-48
2022/11/12 03:04:09;;;;;;;3.30;3.00;;;16.20;68.90;17.40;102338.00;;;;5009931;28;20824;-48
2022/11/12 03:06:35;;;;;;;3.27;2.97;;;16.20;68.90;17.40;102325.00;;;;5009732;28;20242;-48
2022/11/12 03:09:01;;;;;;;3.23;2.93;;;16.20;68.90;17.40;102326.00;;;;5009492;28;20266;-48
2022/11/12 03:11:27;;;;;;;3.47;3.17;;;16.20;68.80;17.40;102320.00;;;;5009286;28;20178;-50
2022/11/12 03:13:52;;;;;;;3.27;2.97;;;16.20;68.90;17.40;102330.00;;;;5009136;28;20207;-48
2022/11/12 03:16:18;;;;;;;3.33;3.13;;;16.10;68.80;17.30;102331.00;;;;5009610;28;20226;-50
2022/11/12 03:18:44;;;;;;;3.53;2.97;;;16.10;68.90;17.30;102324.00;;;;5009579;28;20227;-47
2022/11/12 03:21:09;;;;;;;3.67;3.13;;;16.10;68.90;17.30;102327.00;;;;5009288;28;20244;-50
2022/11/12 03:23:35;;;;;;;3.30;3.00;;;16.10;68.90;17.30;102325.00;;;;5009350;28;20568;-48
2022/11/12 03:26:02;;;;;;;3.43;3.13;;;16.10;68.90;17.30;102323.00;;;;5009279;28;20778;-48
2022/11/12 03:28:28;;;;;;;5.53;2.90;;;16.10;69.50;17.30;102325.00;;;;5009250;28;20172;-49
2022/11/12 03:30:57;;;;;;;2.93;2.50;;;16.10;69.40;17.30;102316.00;;;;5009819;28;20172;-50
2022/11/12 03:33:23;;;;;;;3.07;2.87;;;16.20;69.50;17.30;102320.00;;;;4991284;28;20696;-48
2022/11/12 03:35:49;;;;;;;3.00;2.80;;;16.10;69.40;17.30;102305.00;;;;5009330;28;20264;-49
2022/11/12 03:38:14;;;;;;;3.40;3.10;;;16.10;69.30;17.30;102309.00;;;;5009167;28;20200;-48
2022/11/12 03:40:40;;;;;;;4.43;3.10;;;16.10;69.20;17.20;102297.00;;;;4991517;28;20572;-48
2022/11/12 03:43:06;;;;;;;3.20;2.80;;;16.10;69.20;17.20;102296.00;;;;5009100;28;20171;-47
2022/11/12 03:45:31;;;;;;;2.87;2.67;;;16.10;69.20;17.20;102312.00;;;;5009512;28;20184;-48
2022/11/12 03:47:57;;;;;;;4.63;3.03;;;16.10;69.10;17.20;102292.00;;;;5008712;28;20168;-48
2022/11/12 03:50:26;;;;;;;3.03;2.73;;;16.00;68.90;17.20;102287.00;;;;5008798;28;20189;-50
2022/11/12 03:52:55;;;;;;;3.10;2.67;;;16.00;69.00;17.20;102297.00;;;;5008396;28;20248;-49
2022/11/12 03:55:21;;;;;;;4.00;3.00;;;16.00;69.00;17.20;102297.00;;;;4992210;28;20218;-49
2022/11/12 03:57:50;;;;;;;3.00;2.80;;;16.00;69.00;17.20;102288.00;;;;5011609;28;20203;-48
2022/11/12 04:00:15;;;;;;;2.90;2.70;;;16.00;69.10;17.20;102293.00;;;;5009592;28;20220;-48
2022/11/12 04:02:41;;;;;;;3.00;2.80;;;16.00;69.20;17.10;102280.00;;;;5008304;28;20697;-47
2022/11/12 04:08:35;;;;;;;3.00;2.80;;;15.90;68.90;17.10;102290.00;;;;4993801;28;20801;-48
2022/11/12 04:11:11;;;;;;;2.87;2.67;;;16.00;69.00;17.10;102297.00;;;;5008348;28;20234;-49
2022/11/12 04:13:38;;;;;;;3.40;2.93;;;15.90;68.80;17.10;102271.00;;;;4991512;28;20203;-49
2022/11/12 04:21:54;;;;;;;3.20;2.80;;;15.80;69.00;17.00;102287.00;;;;5008355;28;20202;-50
2022/11/12 04:27:15;;;;;;;4.83;2.90;;;15.80;69.20;17.00;102287.00;;;;5008770;28;20169;-48
2022/11/12 04:32:27;;;;;;;6.63;2.90;;;15.80;69.80;16.90;102286.00;;;;5008389;28;20174;-50
2022/11/12 04:34:53;;;;;;;7.57;2.80;;;15.80;69.80;16.90;102280.00;;;;5008036;28;20197;-50
2022/11/12 04:37:19;;;;;;;7.30;2.70;;;15.80;69.50;16.90;102285.00;;;;5007957;28;20256;-49
2022/11/12 04:39:45;;;;;;;2.87;2.60;;;15.80;69.40;16.90;102204.00;;;;5008123;28;20621;-49
2022/11/12 04:45:04;;;;;;;6.97;3.07;;;15.80;69.60;16.90;102278.00;;;;5007835;28;20276;-50
2022/11/12 04:47:40;;;;;;;10.10;3.20;;;15.80;69.70;16.90;102281.00;;;;5013068;28;20192;-49
2022/11/12 04:50:16;;;;;;;3.20;2.43;;;15.80;69.50;16.90;102274.00;;;;5014512;28;20164;-48
2022/11/12 04:52:42;;;;;;;3.40;2.77;;;15.70;69.40;16.80;102278.00;;;;5014615;28;20254;-49
2022/11/12 04:55:08;;;;;;;4.23;2.97;;;15.70;69.30;16.80;102285.00;;;;5014388;28;20290;-49
2022/11/12 04:57:34;;;;;;;3.40;3.00;;;15.70;69.20;16.80;102276.00;;;;5014794;28;20198;-50
2022/11/12 05:00:00;;;;;;;7.70;3.00;;;15.70;69.10;16.80;102272.00;;;;5014462;28;20408;-49
2022/11/12 05:02:26;;;;;;;3.30;2.70;;;15.70;69.10;16.80;102275.00;;;;5014439;28;20238;-49
2022/11/12 05:04:51;;;;;;;5.03;2.60;;;15.60;68.90;16.80;102275.00;;;;5014600;28;20192;-49
2022/11/12 05:07:17;;;;;;;3.20;2.70;;;15.60;68.90;16.80;102275.00;;;;5014768;28;20179;-49
2022/11/12 05:09:43;;;;;;;5.10;2.83;;;15.60;68.80;16.80;102264.00;;;;5014365;28;20194;-49
2022/11/12 05:12:09;;;;;;;3.10;2.80;;;15.60;68.70;16.70;102247.00;;;;5014812;28;20221;-49
2022/11/12 05:14:34;;;;;;;4.60;2.80;;;15.60;68.60;16.70;102255.00;;;;5014687;28;20191;-49
2022/11/12 05:17:00;;;;;;;3.00;2.70;;;15.60;68.60;16.70;102254.00;;;;5014195;28;20177;-49
2022/11/12 05:19:26;;;;;;;2.80;2.60;;;15.60;68.40;16.70;102252.00;;;;5014520;28;20175;-49
2022/11/12 05:22:04;;;;;;;2.80;2.60;;;15.50;68.30;16.70;102248.00;;;;5013833;28;20218;-49
2022/11/12 05:24:34;;;;;;;2.90;2.70;;;15.50;68.20;16.70;102263.00;;;;5014560;28;20187;-49
2022/11/12 05:27:00;;;;;;;2.83;2.63;;;15.50;68.20;16.60;102254.00;;;;4996438;28;20168;-49
2022/11/12 05:29:26;;;;;;;3.10;2.80;;;15.50;68.10;16.60;102250.00;;;;5014306;28;20182;-49
2022/11/12 05:31:52;;;;;;;2.83;2.63;;;15.50;68.10;16.60;102247.00;;;;5014417;28;20172;-49
2022/11/12 05:34:17;;;;;;;3.20;2.90;;;15.50;68.00;16.60;102248.00;;;;5014990;28;20582;-49
2022/11/12 05:36:43;;;;;;;4.17;2.97;;;15.50;68.00;16.60;102242.00;;;;5015310;28;20659;-49
2022/11/12 05:39:09;;;;;;;2.90;2.70;;;15.50;68.00;16.60;102243.00;;;;5014954;28;20179;-50
2022/11/12 05:41:34;;;;;;;2.80;2.60;;;15.40;67.90;16.60;102253.00;;;;5015223;28;20285;-49
2022/11/12 05:44:00;;;;;;;3.93;2.90;;;15.50;68.10;16.60;102232.00;;;;5013060;28;20203;-49
2022/11/12 05:46:26;;;;;;;4.27;2.73;;;15.40;68.10;16.60;102233.00;;;;5015082;28;20262;-49
2022/11/12 05:48:52;;;;;;;3.10;2.80;;;15.40;68.00;16.60;102229.00;;;;5014122;28;20167;-49
2022/11/12 05:51:17;;;;;;;4.83;2.73;;;15.40;68.00;16.60;102229.00;;;;5014614;28;20167;-49
2022/11/12 05:53:43;;;;;;;4.40;2.80;;;15.40;68.10;16.60;102237.00;;;;5014931;28;20195;-49
2022/11/12 05:56:09;;;;;;;6.30;2.90;;;15.40;68.10;16.60;102241.00;;;;5014770;28;20191;-47
2022/11/12 05:58:35;;;;;;;5.43;2.70;;;15.40;68.10;16.60;102249.00;;;;5012761;28;20183;-50
2022/11/12 06:01:01;;;;;;;4.43;3.17;;;15.40;68.10;16.50;102235.00;;;;5011218;28;20195;-49
2022/11/12 06:03:27;;;;;;;5.57;2.90;;;15.40;68.20;16.50;102227.00;;;;4993567;28;20223;-49
2022/11/12 06:05:53;;;;;;;2.83;2.63;;;15.40;68.30;16.50;102238.00;;;;5011508;28;20255;-49
2022/11/12 06:08:18;;;;;;;5.13;2.70;;;15.30;68.20;16.50;102243.00;;;;5011604;28;20180;-49
2022/11/12 06:10:51;;;;;;;5.03;2.97;;;15.40;68.30;16.20;102233.00;;;;5010089;28;20639;-49
2022/11/12 06:13:17;;;;;;;4.70;2.60;;;15.40;68.50;16.50;102236.00;;;;5011043;28;20286;-48
2022/11/12 06:15:43;;;;;;;6.90;2.90;;;15.30;68.40;16.50;102232.00;;;;5011225;28;20259;-48
2022/11/12 06:18:09;;;;;;;3.40;2.77;;;15.30;68.40;16.50;102242.00;;;;5010672;28;20262;-48
2022/11/12 06:20:35;;;;;;;3.97;2.63;;;15.30;68.50;16.50;102249.00;;;;5010900;28;20199;-47
2022/11/12 06:23:00;;;;;;;3.40;2.50;;;15.30;68.60;16.40;102243.00;;;;5010984;28;20170;-49
2022/11/12 06:25:26;;;;;;;4.03;2.70;;;15.30;68.60;16.40;102247.00;;;;5011101;28;20610;-48
2022/11/12 06:27:52;;;;;;;7.40;3.03;;;15.30;68.50;16.40;102245.00;;;;5010429;28;20603;-48
2022/11/12 06:30:18;;;;;;;4.77;3.10;;;15.30;68.50;16.40;102265.00;;;;5010794;28;20211;-48
2022/11/12 06:32:47;;;;;;;6.43;3.23;;;15.30;68.40;16.40;102254.00;;;;4993524;28;20226;-49
2022/11/12 06:35:14;;;;;;;5.00;3.07;;;15.30;68.50;16.40;102255.00;;;;5015510;28;20196;-49
2022/11/12 06:37:40;;;;;;;3.70;2.93;;;15.30;68.80;16.40;102263.00;;;;5011871;28;20199;-48
2022/11/12 06:40:06;;;;;;;3.70;3.10;;;15.30;68.80;16.40;102265.00;;;;5010802;28;20195;-49
2022/11/12 06:42:32;;;;;;;8.13;3.10;;;15.40;68.90;16.40;102274.00;;;;5010422;28;20553;-48
2022/11/12 06:44:58;;;;;;;5.07;3.03;;;15.50;68.90;16.40;102273.00;;;;5010797;28;20192;-48
2022/11/12 06:47:24;;;;;;;4.53;3.00;;;15.50;68.60;16.50;102275.00;;;;5010472;28;20175;-49
2022/11/12 06:49:49;;;;;;;3.83;2.83;;;15.70;68.60;16.50;102276.00;;;;5010609;28;20172;-48
2022/11/12 06:52:15;;;;;;;4.07;2.90;;;15.80;68.40;16.60;102281.00;;;;5010349;28;20172;-48
2022/11/12 06:54:41;;;;;;;4.70;3.00;;;15.90;68.00;16.70;102283.00;;;;5010276;28;20211;-48
2022/11/12 06:57:06;;;;;;;3.80;2.80;;;16.10;67.90;16.80;102285.00;;;;5010589;28;20251;-48
2022/11/12 06:59:32;;;;;;;2.80;2.60;;;16.30;67.70;16.80;102292.00;;;;5010548;28;20168;-49
2022/11/12 07:01:58;;;;;;;4.70;2.87;;;16.40;67.40;16.90;102292.00;;;;5010034;28;20655;-48
2022/11/12 07:04:24;;;;;;;3.30;2.60;;;16.50;67.20;17.00;102287.00;;;;4992173;28;20206;-49
2022/11/12 07:06:49;;;;;;;4.70;2.70;;;16.70;67.20;17.10;102292.00;;;;5009674;28;20522;-47
2022/11/12 07:09:15;;;;;;;3.00;2.80;;;16.80;67.00;17.20;102294.00;;;;5009686;28;20179;-47
2022/11/12 07:11:41;;;;;;;3.80;2.60;;;16.80;66.80;17.30;102300.00;;;;5009125;28;20208;-48
2022/11/12 07:14:07;;;;;;;3.00;2.67;;;16.90;66.70;17.40;102299.00;;;;5009097;28;20211;-48
2022/11/12 07:16:33;;;;;;;3.33;2.40;;;17.00;66.70;17.40;102286.00;;;;5008961;28;20703;-48
2022/11/12 07:18:58;;;;;;;3.90;2.70;;;17.00;66.70;17.50;102305.00;;;;5009487;28;20527;-50
2022/11/12 07:21:24;;;;;;;5.40;2.60;;;17.10;66.70;17.50;102291.00;;;;5008491;28;20238;-48
2022/11/12 07:23:50;;;;;;;3.13;2.70;;;17.10;66.60;17.60;102298.00;;;;4991757;28;20280;-48
2022/11/12 07:26:20;;;;;;;3.20;2.87;;;17.20;66.60;17.60;102298.00;;;;5010104;28;20220;-49
2022/11/12 07:28:47;;;;;;;3.10;2.80;;;17.20;66.60;17.70;102216.00;;;;5009699;28;20171;-47
2022/11/12 07:31:13;;;;;;;2.80;2.60;;;17.20;66.70;17.70;102301.00;;;;5009961;28;20176;-47
2022/11/12 07:33:40;;;;;;;2.77;2.57;;;17.20;66.90;17.80;102307.00;;;;5010083;28;20291;-50
2022/11/12 07:36:08;;;;;;;2.90;2.50;;;17.20;66.90;17.80;102307.00;;;;5009851;28;20174;-47
2022/11/12 07:38:36;;;;;;;2.97;2.50;;;17.30;66.90;17.80;102302.00;;;;5009386;28;20208;-48
2022/11/12 07:41:15;;;;;;;2.80;2.60;;;17.30;67.00;17.90;102300.00;;;;5009222;28;20189;-49
2022/11/12 07:43:43;;;;;;;2.50;2.30;;;17.30;67.00;17.90;102305.00;;;;5008748;28;20249;-49
2022/11/12 07:46:22;;;;;;;2.70;2.50;;;17.30;67.00;17.90;102303.00;;;;5008720;28;20167;-48
2022/11/12 07:48:48;;;;;;;2.53;2.33;;;17.30;67.10;17.90;102300.00;;;;5008642;28;20156;-48
2022/11/12 07:51:16;;;;;;;2.57;2.37;;;17.30;67.20;17.90;102306.00;;;;4933124;28;20181;-48
2022/11/12 07:53:42;;;;;;;3.47;2.70;;;17.40;67.30;17.90;102311.00;;;;5007809;28;20205;-48
2022/11/12 07:56:14;;;;;;;2.60;2.40;;;17.40;67.20;18.00;102305.00;;;;5008809;28;20280;-48
2022/11/12 07:58:40;;;;;;;2.60;2.40;;;17.40;68.00;18.00;102305.00;;;;5009619;28;20910;-48
2022/11/12 08:01:34;;;;;;;2.87;2.50;;;17.50;67.20;18.00;102308.00;;;;5008998;28;20289;-48
2022/11/12 08:04:01;;;;;;;2.87;2.40;;;17.40;67.20;18.10;102307.00;;;;5005803;28;20575;-48
2022/11/12 08:06:28;;;;;;;2.60;2.30;;;17.40;67.20;18.10;102307.00;;;;4991469;28;20175;-48
2022/11/12 08:08:54;;;;;;;2.70;2.50;;;17.50;67.40;18.10;102300.00;;;;5009048;28;20164;-48
2022/11/12 08:11:20;;;;;;;2.60;2.40;;;17.40;67.40;18.10;102313.00;;;;5009045;28;20663;-49
2022/11/12 08:13:46;;;;;;;2.60;2.40;;;17.50;67.60;18.10;102311.00;;;;5009323;28;20197;-48
2022/11/12 08:16:11;;;;;;;3.37;2.30;;;17.50;67.40;18.10;102310.00;;;;5023895;28;20215;-48
2022/11/12 08:18:37;;;;;;;2.40;2.20;;;17.60;67.40;18.20;102318.00;;;;5028955;28;20178;-49
2022/11/12 08:21:05;;;;;;;4.17;2.40;;;17.50;67.30;18.20;102300.00;;;;5019337;28;20210;-48
2022/11/12 08:23:30;;;;;;;3.90;2.30;;;17.50;67.40;18.20;102302.00;;;;5008807;28;20184;-50
2022/11/12 08:26:00;;;;;;;2.77;2.47;;;17.50;67.50;18.20;102312.00;;;;5008813;28;20533;-49
2022/11/12 08:28:28;;;;;;;2.63;2.40;;;17.50;67.60;18.20;102316.00;;;;5009004;28;20178;-49
2022/11/12 08:30:53;;;;;;;2.80;2.60;;;17.50;67.60;18.20;102309.00;;;;5008674;28;20659;-49
2022/11/12 08:33:19;;;;;;;2.40;2.20;;;17.60;67.70;18.20;102311.00;;;;5008707;28;20188;-49
2022/11/12 08:35:45;;;;;;;2.50;2.23;;;17.60;67.60;18.20;102307.00;;;;5008758;28;20173;-50
2022/11/12 08:38:12;;;;;;;2.37;2.17;;;17.60;67.50;18.20;102290.00;;;;5009086;28;20178;-49
2022/11/12 08:40:38;;;;;;;4.97;2.70;;;17.60;67.50;18.20;102312.00;;;;5008984;28;20193;-49
2022/11/12 08:43:06;;;;;;;6.90;2.60;;;17.60;67.80;18.20;102295.00;;;;5009038;28;20167;-50
2022/11/12 08:45:34;;;;;;;4.67;2.40;;;17.60;67.80;18.30;102303.00;;;;5008900;28;20280;-49
2022/11/12 08:48:01;;;;;;;3.70;2.50;;;17.60;68.00;18.30;102295.00;;;;5024459;28;20581;-47
2022/11/12 08:50:27;;;;;;;5.00;2.37;;;17.70;68.00;18.30;102304.00;;;;4958564;28;20180;-49
2022/11/12 08:52:58;;;;;;;5.93;2.50;;;17.70;68.00;18.40;102308.00;;;;5007677;28;20191;-49
2022/11/12 08:55:24;;;;;;;3.57;2.50;;;17.70;67.90;18.40;102307.00;;;;5008110;28;20226;-49
2022/11/12 08:57:50;;;;;;;4.70;2.70;;;17.80;68.00;18.10;102308.00;;;;5008280;28;20233;-48
2022/11/12 09:00:16;;;;;;;2.60;2.40;;;17.80;68.00;18.40;102295.00;;;;5008486;28;20253;-50
2022/11/12 09:02:42;;;;;;;3.97;2.47;;;17.70;67.90;18.40;102306.00;;;;5008416;28;20176;-48
2022/11/12 09:05:08;;;;;;;5.10;2.60;;;17.70;68.00;18.40;102301.00;;;;5021756;28;20204;-49
2022/11/12 09:07:34;;;;;;;3.20;2.30;;;17.70;68.00;18.40;102307.00;;;;5011374;28;20175;-49
2022/11/12 09:10:00;;;;;;;4.17;2.47;;;17.70;68.00;18.40;102317.00;;;;5008630;28;20235;-48
2022/11/12 09:12:26;;;;;;;4.33;2.30;;;17.80;68.10;18.40;102321.00;;;;5009706;28;20277;-48
2022/11/12 09:14:52;;;;;;;2.50;2.30;;;17.80;68.10;18.50;102313.00;;;;5010162;28;20213;-49
2022/11/12 09:17:17;;;;;;;4.80;2.60;;;17.80;68.00;18.50;102317.00;;;;5008351;28;20255;-47
2022/11/12 09:19:43;;;;;;;3.23;2.23;;;17.80;68.20;18.20;102319.00;;;;5008698;28;20172;-47
2022/11/12 09:22:09;;;;;;;7.37;2.77;;;17.80;68.30;18.50;102321.00;;;;5008357;28;20168;-48
2022/11/12 09:24:35;;;;;;;8.50;2.63;;;17.70;68.80;18.40;102322.00;;;;5008429;28;20202;-47
2022/11/12 09:27:00;;;;;;;10.37;2.53;;;17.70;69.10;18.50;102326.00;;;;5007690;28;20195;-48
2022/11/12 09:29:26;;;;;;;7.60;2.70;;;17.80;69.20;18.50;102319.00;;;;5007237;28;20180;-48
2022/11/12 09:31:52;;;;;;;8.97;2.53;;;17.80;69.10;18.50;102316.00;;;;5008029;28;20172;-48
2022/11/12 09:34:17;;;;;;;11.70;3.10;;;17.70;69.10;18.50;102319.00;;;;4994183;28;20218;-49
2022/11/12 09:36:43;;;;;;;28.67;4.27;;;17.80;69.20;18.50;102313.00;;;;5011878;28;20206;-49
2022/11/12 09:39:09;;;;;;;24.30;4.00;;;17.80;69.20;18.50;102280.00;;;;4931653;28;20186;-48
2022/11/12 09:41:38;;;;;;;14.83;3.20;;;17.80;69.00;18.50;102319.00;;;;5011471;28;20195;-49
2022/11/12 09:44:18;;;;;;;14.70;3.30;;;17.90;69.00;18.60;102318.00;;;;4994298;28;20203;-48
2022/11/12 09:47:12;;;;;;;7.37;2.67;;;17.90;69.00;18.60;102314.00;;;;4996188;28;20218;-48
2022/11/12 09:49:58;;;;;;;7.70;2.80;;;17.90;69.10;18.60;102315.00;;;;4994359;28;20163;-50
2022/11/12 09:52:28;;;;;;;12.30;3.20;;;17.90;69.00;18.60;102303.00;;;;4997044;28;20179;-48
2022/11/12 09:55:07;;;;;;;9.17;2.90;;;17.80;69.00;18.60;102322.00;;;;4994353;28;20234;-48
2022/11/12 09:57:33;;;;;;;8.97;2.80;;;17.80;69.10;18.60;102315.00;;;;4994586;28;20273;-48
2022/11/12 10:00:01;;;;;;;10.07;2.60;;;17.80;69.10;18.60;102323.00;;;;4994632;28;20663;-49
2022/11/12 10:02:39;;;;;;;7.67;2.87;;;17.80;69.10;18.60;102318.00;;;;5011019;28;20172;-48
2022/11/12 10:05:39;;;;;;;14.87;3.00;;;17.70;69.10;18.60;102320.00;;;;4994419;28;20194;-48
2022/11/12 10:08:12;;;;;;;9.17;2.80;;;17.80;69.40;18.60;102316.00;;;;4996694;28;20194;-48
2022/11/12 10:10:48;;;;;;;9.53;2.90;;;17.70;69.20;18.60;102311.00;;;;4995456;28;20614;-50
2022/11/12 10:13:25;;;;;;;8.23;2.60;;;17.70;69.40;18.60;102298.00;;;;4994153;28;20196;-49
2022/11/12 10:19:17;;;;;;;6.53;2.30;;;17.70;69.50;18.60;102301.00;;;;5011447;28;20174;-49
2022/11/12 10:22:25;;;;;;;5.77;2.70;;;17.70;69.60;18.50;102304.00;;;;4996738;28;20266;-49
2022/11/12 10:24:51;;;;;;;5.33;2.63;;;17.70;69.60;18.50;102293.00;;;;4993930;28;20201;-49
2022/11/12 10:27:26;;;;;;;4.07;2.10;;;17.70;69.60;18.50;102296.00;;;;5011391;28;20175;-49
2022/11/12 10:30:00;;;;;;;7.23;2.80;;;17.70;69.60;18.50;102294.00;;;;4994627;28;20190;-48
2022/11/12 10:32:26;;;;;;;8.60;2.80;;;17.70;69.60;18.50;102291.00;;;;4993742;28;20162;-48
2022/11/12 10:34:52;;;;;;;3.37;2.20;;;17.70;69.60;18.50;102295.00;;;;4993529;28;20553;-50
2022/11/12 10:37:27;;;;;;;6.33;2.40;;;17.70;69.60;18.50;102284.00;;;;5011364;28;20175;-49
2022/11/12 10:39:53;;;;;;;4.20;2.30;;;17.70;69.60;18.50;102299.00;;;;4994006;28;20761;-49
2022/11/12 10:42:20;;;;;;;3.93;2.60;;;17.70;69.60;18.50;102286.00;;;;5011052;28;20172;-49
2022/11/12 10:44:46;;;;;;;4.37;2.40;;;17.70;69.80;18.50;102283.00;;;;5010219;28;20190;-47
2022/11/12 10:47:41;;;;;;;2.63;2.40;;;17.70;69.70;18.50;102282.00;;;;4948816;28;20692;-49
2022/11/12 10:50:20;;;;;;;4.87;2.60;;;17.70;69.80;18.50;102281.00;;;;5009172;28;20188;-48
2022/11/12 10:52:56;;;;;;;2.80;2.13;;;17.60;69.70;18.50;102280.00;;;;4993313;28;20614;-49
2022/11/12 10:55:25;;;;;;;3.27;2.20;;;17.60;69.80;18.50;102279.00;;;;5010290;28;20183;-50
2022/11/12 10:58:20;;;;;;;4.37;2.50;;;17.70;69.90;18.50;102278.00;;;;4992732;28;20175;-49
2022/11/12 11:00:57;;;;;;;3.60;2.10;;;17.60;69.90;18.40;102260.00;;;;4993746;28;20218;-49
2022/11/12 11:03:26;;;;;;;4.33;2.50;;;17.60;70.00;18.40;102256.00;;;;4993411;28;20194;-49
2022/11/12 11:06:06;;;;;;;2.90;2.23;;;17.60;70.00;18.40;102267.00;;;;4992757;28;20178;-49
2022/11/12 11:08:37;;;;;;;2.97;2.20;;;17.60;70.10;18.40;102258.00;;;;4962414;28;20173;-50
2022/11/12 11:11:16;;;;;;;2.90;2.40;;;17.60;70.10;18.40;102258.00;;;;5010223;28;20266;-48
2022/11/12 11:13:43;;;;;;;3.37;2.27;;;17.60;70.10;18.40;102258.00;;;;4993344;28;20573;-48
2022/11/12 11:16:27;;;;;;;2.50;2.10;;;17.60;70.20;18.40;102258.00;;;;4992416;28;20172;-48